sensor_id;sensor_type;location;lat;lon;timestamp;P1;durP1;ratioP1;P2;durP2;ratioP2
7881;SDS011;3986;41.884;23.466;2024-02-15T00:00:28;83.83;;;23.80;;
7881;SDS011;3986;41.884;23.466;2024-02-15T00:02:55;79.30;;;23.33;;
7881;SDS011;3986;41.884;23.466;2024-02-15T00:05:23;65.00;;;20.30;;
7881;SDS011;3986;41.884;23.466;2024-02-15T00:07:50;64.27;;;21.67;;
7881;SDS011;3986;41.884;23.466;2024-02-15T00:10:18;74.43;;;22.60;;
7881;SDS011;3986;41.884;23.466;2024-02-15T00:12:46;69.03;;;20.37;;
7881;SDS011;3986;41.884;23.466;2024-02-15T00:15:15;65.47;;;20.27;;
7881;SDS011;3986;41.884;23.466;2024-02-15T00:17:42;74.87;;;19.83;;
7881;SDS011;3986;41.884;23.466;2024-02-15T00:20:10;63.40;;;18.00;;
7881;SDS011;3986;41.884;23.466;2024-02-15T00:22:38;52.93;;;16.50;;
7881;SDS011;3986;41.884;23.466;2024-02-15T00:25:06;62.63;;;16.20;;
7881;SDS011;3986;41.884;23.466;2024-02-15T00:27:35;60.37;;;15.10;;
7881;SDS011;3986;41.884;23.466;2024-02-15T00:30:02;49.43;;;14.03;;
7881;SDS011;3986;41.884;23.466;2024-02-15T00:32:32;62.57;;;15.47;;
7881;SDS011;3986;41.884;23.466;2024-02-15T00:34:59;47.97;;;14.77;;
7881;SDS011;3986;41.884;23.466;2024-02-15T00:37:26;57.53;;;16.10;;
7881;SDS011;3986;41.884;23.466;2024-02-15T00:39:53;59.53;;;16.27;;
7881;SDS011;3986;41.884;23.466;2024-02-15T00:42:19;53.47;;;19.23;;
7881;SDS011;3986;41.884;23.466;2024-02-15T00:44:48;77.80;;;25.60;;
7881;SDS011;3986;41.884;23.466;2024-02-15T00:47:15;71.07;;;24.67;;
7881;SDS011;3986;41.884;23.466;2024-02-15T00:49:43;76.87;;;26.87;;
7881;SDS011;3986;41.884;23.466;2024-02-15T00:52:10;96.37;;;30.87;;
7881;SDS011;3986;41.884;23.466;2024-02-15T00:54:37;88.23;;;34.33;;
7881;SDS011;3986;41.884;23.466;2024-02-15T00:57:04;104.53;;;45.23;;
7881;SDS011;3986;41.884;23.466;2024-02-15T00:59:31;93.23;;;40.97;;
7881;SDS011;3986;41.884;23.466;2024-02-15T01:02:02;79.50;;;35.47;;
7881;SDS011;3986;41.884;23.466;2024-02-15T01:04:30;81.23;;;37.37;;
7881;SDS011;3986;41.884;23.466;2024-02-15T01:06:57;84.60;;;40.00;;
7881;SDS011;3986;41.884;23.466;2024-02-15T01:09:24;84.43;;;43.43;;
7881;SDS011;3986;41.884;23.466;2024-02-15T01:11:51;94.10;;;44.80;;
7881;SDS011;3986;41.884;23.466;2024-02-15T01:14:17;110.40;;;45.33;;
7881;SDS011;3986;41.884;23.466;2024-02-15T01:16:45;109.97;;;48.20;;
7881;SDS011;3986;41.884;23.466;2024-02-15T01:19:13;107.13;;;48.47;;
7881;SDS011;3986;41.884;23.466;2024-02-15T01:21:39;108.17;;;44.87;;
7881;SDS011;3986;41.884;23.466;2024-02-15T01:24:08;92.00;;;42.90;;
7881;SDS011;3986;41.884;23.466;2024-02-15T01:26:35;91.73;;;42.10;;
7881;SDS011;3986;41.884;23.466;2024-02-15T01:29:02;85.50;;;39.87;;
7881;SDS011;3986;41.884;23.466;2024-02-15T01:31:29;83.27;;;39.43;;
7881;SDS011;3986;41.884;23.466;2024-02-15T01:33:56;90.47;;;37.00;;
7881;SDS011;3986;41.884;23.466;2024-02-15T01:36:24;81.90;;;31.90;;
7881;SDS011;3986;41.884;23.466;2024-02-15T01:38:51;81.00;;;31.77;;
7881;SDS011;3986;41.884;23.466;2024-02-15T01:41:18;76.97;;;32.40;;
7881;SDS011;3986;41.884;23.466;2024-02-15T01:43:45;83.77;;;33.83;;
7881;SDS011;3986;41.884;23.466;2024-02-15T01:46:13;87.17;;;33.93;;
7881;SDS011;3986;41.884;23.466;2024-02-15T01:48:41;88.47;;;33.23;;
7881;SDS011;3986;41.884;23.466;2024-02-15T01:51:09;89.40;;;32.33;;
7881;SDS011;3986;41.884;23.466;2024-02-15T01:53:39;74.57;;;31.47;;
7881;SDS011;3986;41.884;23.466;2024-02-15T01:56:07;75.77;;;31.30;;
7881;SDS011;3986;41.884;23.466;2024-02-15T01:58:35;77.90;;;33.63;;
7881;SDS011;3986;41.884;23.466;2024-02-15T02:01:02;79.07;;;34.03;;
7881;SDS011;3986;41.884;23.466;2024-02-15T02:03:30;80.57;;;37.93;;
7881;SDS011;3986;41.884;23.466;2024-02-15T02:05:57;82.83;;;35.90;;
7881;SDS011;3986;41.884;23.466;2024-02-15T02:08:24;76.97;;;32.63;;
7881;SDS011;3986;41.884;23.466;2024-02-15T02:10:53;82.27;;;33.50;;
7881;SDS011;3986;41.884;23.466;2024-02-15T02:13:20;94.07;;;34.83;;
7881;SDS011;3986;41.884;23.466;2024-02-15T02:15:47;83.03;;;35.13;;
7881;SDS011;3986;41.884;23.466;2024-02-15T02:18:14;82.63;;;32.73;;
7881;SDS011;3986;41.884;23.466;2024-02-15T02:20:40;91.07;;;32.57;;
7881;SDS011;3986;41.884;23.466;2024-02-15T02:23:08;71.37;;;29.30;;
7881;SDS011;3986;41.884;23.466;2024-02-15T02:25:41;69.00;;;27.33;;
7881;SDS011;3986;41.884;23.466;2024-02-15T02:28:11;73.40;;;26.57;;
7881;SDS011;3986;41.884;23.466;2024-02-15T02:30:39;75.63;;;27.00;;
7881;SDS011;3986;41.884;23.466;2024-02-15T02:33:10;84.50;;;27.70;;
7881;SDS011;3986;41.884;23.466;2024-02-15T02:35:43;75.43;;;26.60;;
7881;SDS011;3986;41.884;23.466;2024-02-15T02:38:11;76.73;;;27.43;;
7881;SDS011;3986;41.884;23.466;2024-02-15T02:40:38;70.13;;;28.77;;
7881;SDS011;3986;41.884;23.466;2024-02-15T02:43:07;83.43;;;36.03;;
7881;SDS011;3986;41.884;23.466;2024-02-15T02:45:34;82.57;;;39.63;;
7881;SDS011;3986;41.884;23.466;2024-02-15T02:48:01;87.87;;;37.77;;
7881;SDS011;3986;41.884;23.466;2024-02-15T02:50:28;81.43;;;36.43;;
7881;SDS011;3986;41.884;23.466;2024-02-15T02:52:55;93.50;;;38.23;;
7881;SDS011;3986;41.884;23.466;2024-02-15T02:55:22;110.10;;;42.40;;
7881;SDS011;3986;41.884;23.466;2024-02-15T02:57:49;94.37;;;40.43;;
7881;SDS011;3986;41.884;23.466;2024-02-15T03:00:19;90.17;;;37.73;;
7881;SDS011;3986;41.884;23.466;2024-02-15T03:02:46;85.30;;;36.33;;
7881;SDS011;3986;41.884;23.466;2024-02-15T03:05:13;98.83;;;40.37;;
7881;SDS011;3986;41.884;23.466;2024-02-15T03:07:40;98.73;;;47.70;;
7881;SDS011;3986;41.884;23.466;2024-02-15T03:10:07;87.37;;;38.77;;
7881;SDS011;3986;41.884;23.466;2024-02-15T03:12:39;79.63;;;37.30;;
7881;SDS011;3986;41.884;23.466;2024-02-15T03:15:07;87.97;;;39.43;;
7881;SDS011;3986;41.884;23.466;2024-02-15T03:17:37;80.50;;;37.63;;
7881;SDS011;3986;41.884;23.466;2024-02-15T03:20:05;78.73;;;35.70;;
7881;SDS011;3986;41.884;23.466;2024-02-15T03:22:36;66.03;;;28.57;;
7881;SDS011;3986;41.884;23.466;2024-02-15T03:25:03;74.90;;;31.57;;
7881;SDS011;3986;41.884;23.466;2024-02-15T03:27:33;79.67;;;32.07;;
7881;SDS011;3986;41.884;23.466;2024-02-15T03:30:00;77.77;;;30.80;;
7881;SDS011;3986;41.884;23.466;2024-02-15T03:32:27;73.27;;;28.83;;
7881;SDS011;3986;41.884;23.466;2024-02-15T03:34:55;79.73;;;28.87;;
7881;SDS011;3986;41.884;23.466;2024-02-15T03:37:22;86.23;;;32.93;;
7881;SDS011;3986;41.884;23.466;2024-02-15T03:39:49;83.20;;;34.17;;
7881;SDS011;3986;41.884;23.466;2024-02-15T03:42:15;76.67;;;31.37;;
7881;SDS011;3986;41.884;23.466;2024-02-15T03:44:42;73.53;;;29.43;;
7881;SDS011;3986;41.884;23.466;2024-02-15T03:47:09;75.10;;;28.57;;
7881;SDS011;3986;41.884;23.466;2024-02-15T03:49:38;67.07;;;29.40;;
7881;SDS011;3986;41.884;23.466;2024-02-15T03:52:08;63.13;;;30.43;;
7881;SDS011;3986;41.884;23.466;2024-02-15T03:54:35;71.90;;;31.33;;
7881;SDS011;3986;41.884;23.466;2024-02-15T03:57:02;80.73;;;32.00;;
7881;SDS011;3986;41.884;23.466;2024-02-15T03:59:31;79.57;;;30.20;;
7881;SDS011;3986;41.884;23.466;2024-02-15T04:02:00;88.23;;;34.40;;
7881;SDS011;3986;41.884;23.466;2024-02-15T04:04:29;85.17;;;35.93;;
7881;SDS011;3986;41.884;23.466;2024-02-15T04:06:56;95.60;;;40.77;;
7881;SDS011;3986;41.884;23.466;2024-02-15T04:09:24;96.70;;;45.80;;
7881;SDS011;3986;41.884;23.466;2024-02-15T04:11:51;110.13;;;44.27;;
7881;SDS011;3986;41.884;23.466;2024-02-15T04:14:18;100.97;;;45.87;;
7881;SDS011;3986;41.884;23.466;2024-02-15T04:16:45;91.57;;;42.57;;
7881;SDS011;3986;41.884;23.466;2024-02-15T04:19:12;94.27;;;41.87;;
7881;SDS011;3986;41.884;23.466;2024-02-15T04:21:39;99.90;;;48.13;;
7881;SDS011;3986;41.884;23.466;2024-02-15T04:24:09;93.90;;;46.77;;
7881;SDS011;3986;41.884;23.466;2024-02-15T04:26:37;101.33;;;49.17;;
7881;SDS011;3986;41.884;23.466;2024-02-15T04:29:04;107.87;;;55.43;;
7881;SDS011;3986;41.884;23.466;2024-02-15T04:31:32;120.33;;;59.93;;
7881;SDS011;3986;41.884;23.466;2024-02-15T04:34:02;107.03;;;52.57;;
7881;SDS011;3986;41.884;23.466;2024-02-15T04:36:29;107.33;;;52.50;;
7881;SDS011;3986;41.884;23.466;2024-02-15T04:38:59;108.13;;;52.67;;
7881;SDS011;3986;41.884;23.466;2024-02-15T04:41:27;94.93;;;45.20;;
7881;SDS011;3986;41.884;23.466;2024-02-15T04:43:55;82.67;;;35.97;;
7881;SDS011;3986;41.884;23.466;2024-02-15T04:46:22;85.87;;;39.23;;
7881;SDS011;3986;41.884;23.466;2024-02-15T04:48:49;86.00;;;37.77;;
7881;SDS011;3986;41.884;23.466;2024-02-15T04:51:17;79.23;;;34.67;;
7881;SDS011;3986;41.884;23.466;2024-02-15T04:53:45;85.27;;;32.03;;
7881;SDS011;3986;41.884;23.466;2024-02-15T04:56:13;72.20;;;31.47;;
7881;SDS011;3986;41.884;23.466;2024-02-15T04:58:41;79.00;;;36.97;;
7881;SDS011;3986;41.884;23.466;2024-02-15T05:01:15;92.80;;;45.00;;
7881;SDS011;3986;41.884;23.466;2024-02-15T05:03:42;76.33;;;35.97;;
7881;SDS011;3986;41.884;23.466;2024-02-15T05:06:10;81.20;;;39.20;;
7881;SDS011;3986;41.884;23.466;2024-02-15T05:08:38;76.13;;;36.63;;
7881;SDS011;3986;41.884;23.466;2024-02-15T05:11:07;87.63;;;40.53;;
7881;SDS011;3986;41.884;23.466;2024-02-15T05:13:39;76.40;;;37.97;;
7881;SDS011;3986;41.884;23.466;2024-02-15T05:16:06;94.03;;;37.23;;
7881;SDS011;3986;41.884;23.466;2024-02-15T05:18:34;102.97;;;44.53;;
7881;SDS011;3986;41.884;23.466;2024-02-15T05:21:01;94.47;;;42.27;;
7881;SDS011;3986;41.884;23.466;2024-02-15T05:23:28;105.50;;;45.87;;
7881;SDS011;3986;41.884;23.466;2024-02-15T05:25:55;99.13;;;44.73;;
7881;SDS011;3986;41.884;23.466;2024-02-15T05:28:23;87.77;;;43.33;;
7881;SDS011;3986;41.884;23.466;2024-02-15T05:31:07;95.97;;;47.77;;
7881;SDS011;3986;41.884;23.466;2024-02-15T05:33:36;99.53;;;47.93;;
7881;SDS011;3986;41.884;23.466;2024-02-15T05:36:04;123.00;;;60.73;;
7881;SDS011;3986;41.884;23.466;2024-02-15T05:38:30;131.17;;;59.10;;
7881;SDS011;3986;41.884;23.466;2024-02-15T05:40:57;134.10;;;61.50;;
7881;SDS011;3986;41.884;23.466;2024-02-15T05:43:24;122.87;;;56.97;;
7881;SDS011;3986;41.884;23.466;2024-02-15T05:45:51;130.80;;;63.57;;
7881;SDS011;3986;41.884;23.466;2024-02-15T05:48:18;146.10;;;75.13;;
7881;SDS011;3986;41.884;23.466;2024-02-15T05:50:46;131.33;;;64.33;;
7881;SDS011;3986;41.884;23.466;2024-02-15T05:53:13;160.13;;;88.80;;
7881;SDS011;3986;41.884;23.466;2024-02-15T05:55:40;177.73;;;101.90;;
7881;SDS011;3986;41.884;23.466;2024-02-15T05:58:09;202.33;;;104.30;;
7881;SDS011;3986;41.884;23.466;2024-02-15T06:00:38;173.33;;;97.30;;
7881;SDS011;3986;41.884;23.466;2024-02-15T06:03:06;156.63;;;86.70;;
7881;SDS011;3986;41.884;23.466;2024-02-15T06:05:34;128.80;;;62.23;;
7881;SDS011;3986;41.884;23.466;2024-02-15T06:08:02;139.50;;;61.57;;
7881;SDS011;3986;41.884;23.466;2024-02-15T06:10:30;103.13;;;47.90;;
7881;SDS011;3986;41.884;23.466;2024-02-15T06:12:56;115.13;;;50.90;;
7881;SDS011;3986;41.884;23.466;2024-02-15T06:15:24;110.37;;;50.43;;
7881;SDS011;3986;41.884;23.466;2024-02-15T06:17:52;118.67;;;61.47;;
7881;SDS011;3986;41.884;23.466;2024-02-15T06:20:19;162.90;;;89.70;;
7881;SDS011;3986;41.884;23.466;2024-02-15T06:22:46;174.60;;;100.40;;
7881;SDS011;3986;41.884;23.466;2024-02-15T06:25:15;147.03;;;84.87;;
7881;SDS011;3986;41.884;23.466;2024-02-15T06:27:45;159.57;;;93.80;;
7881;SDS011;3986;41.884;23.466;2024-02-15T06:30:14;166.13;;;85.77;;
7881;SDS011;3986;41.884;23.466;2024-02-15T06:32:58;162.93;;;83.47;;
7881;SDS011;3986;41.884;23.466;2024-02-15T06:35:43;147.77;;;84.23;;
7881;SDS011;3986;41.884;23.466;2024-02-15T06:38:27;199.43;;;89.73;;
7881;SDS011;3986;41.884;23.466;2024-02-15T06:41:13;176.60;;;82.87;;
7881;SDS011;3986;41.884;23.466;2024-02-15T06:43:40;133.23;;;56.40;;
7881;SDS011;3986;41.884;23.466;2024-02-15T06:46:06;130.77;;;47.67;;
7881;SDS011;3986;41.884;23.466;2024-02-15T06:48:35;110.40;;;52.23;;
7881;SDS011;3986;41.884;23.466;2024-02-15T06:51:03;112.10;;;46.97;;
7881;SDS011;3986;41.884;23.466;2024-02-15T06:53:30;126.10;;;51.60;;
7881;SDS011;3986;41.884;23.466;2024-02-15T06:55:57;118.67;;;50.97;;
7881;SDS011;3986;41.884;23.466;2024-02-15T06:58:25;120.67;;;60.50;;
7881;SDS011;3986;41.884;23.466;2024-02-15T07:00:52;119.87;;;65.77;;
7881;SDS011;3986;41.884;23.466;2024-02-15T07:03:20;140.10;;;71.07;;
7881;SDS011;3986;41.884;23.466;2024-02-15T07:05:47;150.90;;;71.03;;
7881;SDS011;3986;41.884;23.466;2024-02-15T07:08:15;139.33;;;81.83;;
7881;SDS011;3986;41.884;23.466;2024-02-15T07:10:41;145.23;;;77.20;;
7881;SDS011;3986;41.884;23.466;2024-02-15T07:13:08;126.10;;;62.77;;
7881;SDS011;3986;41.884;23.466;2024-02-15T07:15:37;119.63;;;55.67;;
7881;SDS011;3986;41.884;23.466;2024-02-15T07:18:04;108.07;;;44.10;;
7881;SDS011;3986;41.884;23.466;2024-02-15T07:20:31;109.20;;;46.73;;
7881;SDS011;3986;41.884;23.466;2024-02-15T07:22:58;112.43;;;47.97;;
7881;SDS011;3986;41.884;23.466;2024-02-15T07:25:25;82.57;;;36.03;;
7881;SDS011;3986;41.884;23.466;2024-02-15T07:27:52;80.43;;;37.03;;
7881;SDS011;3986;41.884;23.466;2024-02-15T07:30:19;96.07;;;37.00;;
7881;SDS011;3986;41.884;23.466;2024-02-15T07:32:47;94.57;;;35.47;;
7881;SDS011;3986;41.884;23.466;2024-02-15T07:35:14;101.53;;;39.87;;
7881;SDS011;3986;41.884;23.466;2024-02-15T07:37:50;106.60;;;36.43;;
7881;SDS011;3986;41.884;23.466;2024-02-15T07:40:18;91.27;;;39.93;;
7881;SDS011;3986;41.884;23.466;2024-02-15T07:42:47;106.67;;;53.17;;
7881;SDS011;3986;41.884;23.466;2024-02-15T07:45:14;125.80;;;58.67;;
7881;SDS011;3986;41.884;23.466;2024-02-15T07:47:40;141.67;;;81.10;;
7881;SDS011;3986;41.884;23.466;2024-02-15T07:50:09;146.00;;;78.33;;
7881;SDS011;3986;41.884;23.466;2024-02-15T07:52:38;139.00;;;69.47;;
7881;SDS011;3986;41.884;23.466;2024-02-15T07:55:04;101.80;;;50.53;;
7881;SDS011;3986;41.884;23.466;2024-02-15T07:57:34;102.53;;;47.70;;
7881;SDS011;3986;41.884;23.466;2024-02-15T08:00:01;166.57;;;53.10;;
7881;SDS011;3986;41.884;23.466;2024-02-15T08:02:30;95.03;;;43.77;;
7881;SDS011;3986;41.884;23.466;2024-02-15T08:04:58;88.67;;;40.90;;
7881;SDS011;3986;41.884;23.466;2024-02-15T08:07:26;74.03;;;30.93;;
7881;SDS011;3986;41.884;23.466;2024-02-15T08:09:56;68.27;;;27.43;;
7881;SDS011;3986;41.884;23.466;2024-02-15T08:12:24;128.33;;;34.60;;
7881;SDS011;3986;41.884;23.466;2024-02-15T08:14:51;103.23;;;33.97;;
7881;SDS011;3986;41.884;23.466;2024-02-15T08:17:18;81.23;;;32.90;;
7881;SDS011;3986;41.884;23.466;2024-02-15T08:19:45;81.23;;;29.97;;
7881;SDS011;3986;41.884;23.466;2024-02-15T08:22:11;92.17;;;29.33;;
7881;SDS011;3986;41.884;23.466;2024-02-15T08:24:39;71.13;;;26.33;;
7881;SDS011;3986;41.884;23.466;2024-02-15T08:27:06;73.07;;;21.17;;
7881;SDS011;3986;41.884;23.466;2024-02-15T08:29:33;81.03;;;26.20;;
7881;SDS011;3986;41.884;23.466;2024-02-15T08:32:00;67.43;;;30.53;;
7881;SDS011;3986;41.884;23.466;2024-02-15T08:34:27;109.07;;;24.67;;
7881;SDS011;3986;41.884;23.466;2024-02-15T08:36:53;48.95;;;16.25;;
7881;SDS011;3986;41.884;23.466;2024-02-15T08:39:23;63.58;;;23.13;;
7881;SDS011;3986;41.884;23.466;2024-02-15T08:41:51;55.47;;;21.70;;
7881;SDS011;3986;41.884;23.466;2024-02-15T08:44:18;55.85;;;30.27;;
7881;SDS011;3986;41.884;23.466;2024-02-15T08:46:46;76.47;;;34.80;;
7881;SDS011;3986;41.884;23.466;2024-02-15T08:49:13;101.88;;;33.80;;
7881;SDS011;3986;41.884;23.466;2024-02-15T08:51:40;86.88;;;30.98;;
7881;SDS011;3986;41.884;23.466;2024-02-15T08:54:07;86.05;;;34.60;;
7881;SDS011;3986;41.884;23.466;2024-02-15T08:56:35;74.85;;;30.55;;
7881;SDS011;3986;41.884;23.466;2024-02-15T08:59:03;83.63;;;28.02;;
7881;SDS011;3986;41.884;23.466;2024-02-15T09:01:30;58.03;;;28.80;;
7881;SDS011;3986;41.884;23.466;2024-02-15T09:03:57;52.53;;;28.88;;
7881;SDS011;3986;41.884;23.466;2024-02-15T09:06:24;67.65;;;28.35;;
7881;SDS011;3986;41.884;23.466;2024-02-15T09:08:51;65.30;;;27.05;;
7881;SDS011;3986;41.884;23.466;2024-02-15T09:11:18;57.70;;;21.27;;
7881;SDS011;3986;41.884;23.466;2024-02-15T09:13:44;80.00;;;19.77;;
7881;SDS011;3986;41.884;23.466;2024-02-15T09:16:13;48.20;;;19.55;;
7881;SDS011;3986;41.884;23.466;2024-02-15T09:18:40;76.80;;;21.55;;
7881;SDS011;3986;41.884;23.466;2024-02-15T09:21:10;89.20;;;23.42;;
7881;SDS011;3986;41.884;23.466;2024-02-15T09:23:37;44.20;;;23.70;;
7881;SDS011;3986;41.884;23.466;2024-02-15T09:26:04;54.17;;;22.13;;
7881;SDS011;3986;41.884;23.466;2024-02-15T09:28:32;105.38;;;23.55;;
7881;SDS011;3986;41.884;23.466;2024-02-15T09:30:59;57.90;;;14.07;;
7881;SDS011;3986;41.884;23.466;2024-02-15T09:33:28;52.35;;;11.55;;
7881;SDS011;3986;41.884;23.466;2024-02-15T09:35:54;56.22;;;12.07;;
7881;SDS011;3986;41.884;23.466;2024-02-15T09:38:21;52.45;;;10.68;;
7881;SDS011;3986;41.884;23.466;2024-02-15T09:40:50;51.78;;;12.30;;
7881;SDS011;3986;41.884;23.466;2024-02-15T09:43:17;67.80;;;14.18;;
7881;SDS011;3986;41.884;23.466;2024-02-15T09:45:44;47.97;;;10.82;;
7881;SDS011;3986;41.884;23.466;2024-02-15T09:48:11;90.43;;;11.85;;
7881;SDS011;3986;41.884;23.466;2024-02-15T09:50:41;84.60;;;13.25;;
7881;SDS011;3986;41.884;23.466;2024-02-15T09:53:12;68.03;;;12.77;;
7881;SDS011;3986;41.884;23.466;2024-02-15T09:55:40;88.13;;;14.18;;
7881;SDS011;3986;41.884;23.466;2024-02-15T09:58:07;70.05;;;13.40;;
7881;SDS011;3986;41.884;23.466;2024-02-15T10:00:34;83.60;;;14.27;;
7881;SDS011;3986;41.884;23.466;2024-02-15T10:03:02;48.65;;;13.60;;
7881;SDS011;3986;41.884;23.466;2024-02-15T10:05:32;60.88;;;12.20;;
7881;SDS011;3986;41.884;23.466;2024-02-15T10:08:00;62.53;;;11.07;;
7881;SDS011;3986;41.884;23.466;2024-02-15T10:10:29;55.58;;;10.60;;
7881;SDS011;3986;41.884;23.466;2024-02-15T10:12:59;41.47;;;9.77;;
7881;SDS011;3986;41.884;23.466;2024-02-15T10:15:33;60.00;;;13.63;;
7881;SDS011;3986;41.884;23.466;2024-02-15T10:18:01;61.90;;;14.18;;
7881;SDS011;3986;41.884;23.466;2024-02-15T10:20:30;70.95;;;12.85;;
7881;SDS011;3986;41.884;23.466;2024-02-15T10:23:10;109.47;;;17.60;;
7881;SDS011;3986;41.884;23.466;2024-02-15T10:25:38;89.43;;;14.60;;
7881;SDS011;3986;41.884;23.466;2024-02-15T10:28:05;87.25;;;15.65;;
7881;SDS011;3986;41.884;23.466;2024-02-15T10:30:34;83.68;;;15.90;;
7881;SDS011;3986;41.884;23.466;2024-02-15T10:33:01;117.38;;;18.13;;
7881;SDS011;3986;41.884;23.466;2024-02-15T10:35:28;58.33;;;11.00;;
7881;SDS011;3986;41.884;23.466;2024-02-15T10:38:04;61.10;;;10.93;;
7881;SDS011;3986;41.884;23.466;2024-02-15T10:40:34;88.32;;;12.57;;
7881;SDS011;3986;41.884;23.466;2024-02-15T10:43:02;103.97;;;17.75;;
7881;SDS011;3986;41.884;23.466;2024-02-15T10:45:30;68.25;;;15.85;;
7881;SDS011;3986;41.884;23.466;2024-02-15T10:47:58;51.78;;;9.85;;
7881;SDS011;3986;41.884;23.466;2024-02-15T10:50:24;95.18;;;14.07;;
7881;SDS011;3986;41.884;23.466;2024-02-15T10:52:53;83.97;;;13.32;;
7881;SDS011;3986;41.884;23.466;2024-02-15T10:55:23;71.78;;;21.55;;
7881;SDS011;3986;41.884;23.466;2024-02-15T10:58:05;73.78;;;13.20;;
7881;SDS011;3986;41.884;23.466;2024-02-15T11:00:32;70.50;;;10.98;;
7881;SDS011;3986;41.884;23.466;2024-02-15T11:03:02;70.88;;;10.23;;
7881;SDS011;3986;41.884;23.466;2024-02-15T11:05:32;71.18;;;10.95;;
7881;SDS011;3986;41.884;23.466;2024-02-15T11:08:01;70.85;;;15.55;;
7881;SDS011;3986;41.884;23.466;2024-02-15T11:10:29;70.55;;;12.60;;
7881;SDS011;3986;41.884;23.466;2024-02-15T11:12:57;62.92;;;12.70;;
7881;SDS011;3986;41.884;23.466;2024-02-15T11:18:23;74.93;;;10.98;;
7881;SDS011;3986;41.884;23.466;2024-02-15T11:21:09;75.18;;;23.95;;
7881;SDS011;3986;41.884;23.466;2024-02-15T11:23:36;77.93;;;31.98;;
7881;SDS011;3986;41.884;23.466;2024-02-15T11:26:08;69.63;;;12.65;;
7881;SDS011;3986;41.884;23.466;2024-02-15T11:28:38;57.30;;;10.80;;
7881;SDS011;3986;41.884;23.466;2024-02-15T11:31:10;51.85;;;10.32;;
7881;SDS011;3986;41.884;23.466;2024-02-15T11:37:08;63.28;;;14.77;;
7881;SDS011;3986;41.884;23.466;2024-02-15T11:39:39;119.18;;;19.80;;
7881;SDS011;3986;41.884;23.466;2024-02-15T11:42:25;109.43;;;19.77;;
7881;SDS011;3986;41.884;23.466;2024-02-15T11:45:01;64.72;;;14.20;;
7881;SDS011;3986;41.884;23.466;2024-02-15T11:47:31;101.88;;;15.40;;
7881;SDS011;3986;41.884;23.466;2024-02-15T11:49:59;90.53;;;16.83;;
7881;SDS011;3986;41.884;23.466;2024-02-15T11:52:28;76.95;;;12.90;;
7881;SDS011;3986;41.884;23.466;2024-02-15T11:55:03;83.35;;;13.48;;
7881;SDS011;3986;41.884;23.466;2024-02-15T11:57:32;88.15;;;13.70;;
7881;SDS011;3986;41.884;23.466;2024-02-15T12:00:05;66.35;;;13.52;;
7881;SDS011;3986;41.884;23.466;2024-02-15T12:03:00;51.63;;;10.93;;
7881;SDS011;3986;41.884;23.466;2024-02-15T12:05:44;81.38;;;16.08;;
7881;SDS011;3986;41.884;23.466;2024-02-15T12:08:28;97.47;;;19.33;;
7881;SDS011;3986;41.884;23.466;2024-02-15T12:11:13;64.85;;;12.43;;
7881;SDS011;3986;41.884;23.466;2024-02-15T12:13:58;55.38;;;12.38;;
7881;SDS011;3986;41.884;23.466;2024-02-15T12:16:42;69.35;;;12.88;;
7881;SDS011;3986;41.884;23.466;2024-02-15T12:19:27;64.38;;;11.38;;
7881;SDS011;3986;41.884;23.466;2024-02-15T12:21:54;72.13;;;12.45;;
7881;SDS011;3986;41.884;23.466;2024-02-15T12:24:23;81.63;;;11.85;;
7881;SDS011;3986;41.884;23.466;2024-02-15T12:26:52;82.85;;;12.20;;
7881;SDS011;3986;41.884;23.466;2024-02-15T12:29:25;44.50;;;10.18;;
7881;SDS011;3986;41.884;23.466;2024-02-15T12:31:54;82.55;;;16.00;;
7881;SDS011;3986;41.884;23.466;2024-02-15T12:34:21;81.93;;;12.30;;
7881;SDS011;3986;41.884;23.466;2024-02-15T12:36:49;78.60;;;13.52;;
7881;SDS011;3986;41.884;23.466;2024-02-15T12:39:24;76.20;;;13.25;;
7881;SDS011;3986;41.884;23.466;2024-02-15T12:41:53;71.03;;;13.73;;
7881;SDS011;3986;41.884;23.466;2024-02-15T12:44:19;80.32;;;13.38;;
7881;SDS011;3986;41.884;23.466;2024-02-15T12:46:47;84.75;;;14.82;;
7881;SDS011;3986;41.884;23.466;2024-02-15T12:49:27;80.63;;;14.50;;
7881;SDS011;3986;41.884;23.466;2024-02-15T12:55:16;63.42;;;12.05;;
7881;SDS011;3986;41.884;23.466;2024-02-15T12:57:45;53.90;;;11.25;;
7881;SDS011;3986;41.884;23.466;2024-02-15T13:00:17;76.03;;;13.38;;
7881;SDS011;3986;41.884;23.466;2024-02-15T13:02:45;73.50;;;13.35;;
7881;SDS011;3986;41.884;23.466;2024-02-15T13:05:15;67.05;;;13.23;;
7881;SDS011;3986;41.884;23.466;2024-02-15T13:07:43;78.88;;;17.40;;
7881;SDS011;3986;41.884;23.466;2024-02-15T13:10:10;67.35;;;15.60;;
7881;SDS011;3986;41.884;23.466;2024-02-15T13:12:41;65.55;;;14.43;;
7881;SDS011;3986;41.884;23.466;2024-02-15T13:15:09;60.90;;;12.35;;
7881;SDS011;3986;41.884;23.466;2024-02-15T13:17:40;51.45;;;14.75;;
7881;SDS011;3986;41.884;23.466;2024-02-15T13:20:09;64.40;;;16.65;;
7881;SDS011;3986;41.884;23.466;2024-02-15T13:22:39;64.68;;;14.77;;
7881;SDS011;3986;41.884;23.466;2024-02-15T13:25:06;52.53;;;17.80;;
7881;SDS011;3986;41.884;23.466;2024-02-15T13:27:34;49.53;;;18.42;;
7881;SDS011;3986;41.884;23.466;2024-02-15T13:30:05;55.60;;;18.42;;
7881;SDS011;3986;41.884;23.466;2024-02-15T13:32:34;65.43;;;17.73;;
7881;SDS011;3986;41.884;23.466;2024-02-15T13:35:02;68.13;;;16.03;;
7881;SDS011;3986;41.884;23.466;2024-02-15T13:37:38;98.90;;;22.47;;
7881;SDS011;3986;41.884;23.466;2024-02-15T13:40:08;94.13;;;24.90;;
7881;SDS011;3986;41.884;23.466;2024-02-15T13:42:40;83.90;;;26.63;;
7881;SDS011;3986;41.884;23.466;2024-02-15T13:45:13;61.80;;;17.67;;
7881;SDS011;3986;41.884;23.466;2024-02-15T13:47:40;55.10;;;20.33;;
7881;SDS011;3986;41.884;23.466;2024-02-15T13:50:07;71.83;;;19.93;;
7881;SDS011;3986;41.884;23.466;2024-02-15T13:52:35;89.90;;;22.00;;
7881;SDS011;3986;41.884;23.466;2024-02-15T13:55:02;50.17;;;15.53;;
7881;SDS011;3986;41.884;23.466;2024-02-15T13:57:30;78.83;;;23.47;;
7881;SDS011;3986;41.884;23.466;2024-02-15T13:59:56;76.00;;;23.23;;
7881;SDS011;3986;41.884;23.466;2024-02-15T14:02:25;76.97;;;26.43;;
7881;SDS011;3986;41.884;23.466;2024-02-15T14:04:51;59.33;;;21.53;;
7881;SDS011;3986;41.884;23.466;2024-02-15T14:07:18;76.43;;;21.13;;
7881;SDS011;3986;41.884;23.466;2024-02-15T14:09:45;92.67;;;38.97;;
7881;SDS011;3986;41.884;23.466;2024-02-15T14:12:12;77.33;;;23.63;;
7881;SDS011;3986;41.884;23.466;2024-02-15T14:14:39;102.97;;;32.50;;
7881;SDS011;3986;41.884;23.466;2024-02-15T14:17:06;81.27;;;28.00;;
7881;SDS011;3986;41.884;23.466;2024-02-15T14:19:34;78.33;;;26.90;;
7881;SDS011;3986;41.884;23.466;2024-02-15T14:22:02;81.70;;;30.80;;
7881;SDS011;3986;41.884;23.466;2024-02-15T14:24:34;96.60;;;32.50;;
7881;SDS011;3986;41.884;23.466;2024-02-15T14:27:02;72.93;;;33.40;;
7881;SDS011;3986;41.884;23.466;2024-02-15T14:29:29;87.17;;;31.40;;
7881;SDS011;3986;41.884;23.466;2024-02-15T14:31:58;108.27;;;33.93;;
7881;SDS011;3986;41.884;23.466;2024-02-15T14:34:43;95.67;;;39.77;;
7881;SDS011;3986;41.884;23.466;2024-02-15T14:37:10;103.40;;;42.53;;
7881;SDS011;3986;41.884;23.466;2024-02-15T14:39:37;93.20;;;40.87;;
7881;SDS011;3986;41.884;23.466;2024-02-15T14:42:04;137.63;;;57.23;;
7881;SDS011;3986;41.884;23.466;2024-02-15T14:44:31;122.67;;;54.17;;
7881;SDS011;3986;41.884;23.466;2024-02-15T14:46:59;83.90;;;40.77;;
7881;SDS011;3986;41.884;23.466;2024-02-15T14:49:26;110.23;;;43.40;;